sensor_id;sensor_type;location;lat;lon;timestamp;pressure;altitude;pressure_sealevel;temperature;humidity
22333;BME280;11334;36.986;-121.936;2024-02-21T00:01:51;101295.22;;;15.48;100.00
22333;BME280;11334;36.986;-121.936;2024-02-21T00:04:17;101295.72;;;15.51;100.00
22333;BME280;11334;36.986;-121.936;2024-02-21T00:06:43;101284.03;;;15.52;100.00
22333;BME280;11334;36.986;-121.936;2024-02-21T00:09:09;101294.16;;;15.64;100.00
22333;BME280;11334;36.986;-121.936;2024-02-21T00:11:35;101288.44;;;15.67;100.00
22333;BME280;11334;36.986;-121.936;2024-02-21T00:14:02;101286.75;;;15.74;100.00
22333;BME280;11334;36.986;-121.936;2024-02-21T00:16:28;101283.06;;;15.75;100.00
22333;BME280;11334;36.986;-121.936;2024-02-21T00:18:54;101286.69;;;15.82;100.00
22333;BME280;11334;36.986;-121.936;2024-02-21T00:21:20;101292.19;;;15.80;100.00
22333;BME280;11334;36.986;-121.936;2024-02-21T00:23:46;101292.69;;;15.84;100.00
22333;BME280;11334;36.986;-121.936;2024-02-21T00:26:14;101294.19;;;15.86;100.00
22333;BME280;11334;36.986;-121.936;2024-02-21T00:28:40;101295.16;;;15.85;100.00
22333;BME280;11334;36.986;-121.936;2024-02-21T00:31:06;101290.13;;;15.90;100.00
22333;BME280;11334;36.986;-121.936;2024-02-21T00:33:33;101301.31;;;15.94;100.00
22333;BME280;11334;36.986;-121.936;2024-02-21T00:35:59;101297.63;;;15.95;100.00
22333;BME280;11334;36.986;-121.936;2024-02-21T00:38:25;101307.28;;;15.96;100.00
22333;BME280;11334;36.986;-121.936;2024-02-21T00:40:51;101307.78;;;15.99;100.00
22333;BME280;11334;36.986;-121.936;2024-02-21T00:43:17;101306.97;;;15.99;100.00
22333;BME280;11334;36.986;-121.936;2024-02-21T00:45:43;101309.63;;;15.99;100.00
22333;BME280;11334;36.986;-121.936;2024-02-21T00:48:10;101304.44;;;15.97;100.00
22333;BME280;11334;36.986;-121.936;2024-02-21T00:50:36;101307.94;;;15.98;100.00
22333;BME280;11334;36.986;-121.936;2024-02-21T00:53:03;101296.50;;;15.89;100.00
22333;BME280;11334;36.986;-121.936;2024-02-21T00:55:29;101304.50;;;15.89;100.00
22333;BME280;11334;36.986;-121.936;2024-02-21T00:57:55;101300.16;;;15.88;100.00
22333;BME280;11334;36.986;-121.936;2024-02-21T01:00:22;101305.34;;;15.90;100.00
22333;BME280;11334;36.986;-121.936;2024-02-21T01:02:48;101298.34;;;15.89;100.00
22333;BME280;11334;36.986;-121.936;2024-02-21T01:05:14;101308.53;;;15.85;100.00
22333;BME280;11334;36.986;-121.936;2024-02-21T01:07:40;101309.34;;;15.86;100.00
22333;BME280;11334;36.986;-121.936;2024-02-21T01:10:07;101307.03;;;15.83;100.00
22333;BME280;11334;36.986;-121.936;2024-02-21T01:12:33;101307.09;;;15.75;100.00
22333;BME280;11334;36.986;-121.936;2024-02-21T01:14:59;101301.09;;;15.73;100.00
22333;BME280;11334;36.986;-121.936;2024-02-21T01:17:26;101308.94;;;15.75;100.00
22333;BME280;11334;36.986;-121.936;2024-02-21T01:19:52;101307.16;;;15.67;100.00
22333;BME280;11334;36.986;-121.936;2024-02-21T01:22:18;101306.78;;;15.70;100.00
22333;BME280;11334;36.986;-121.936;2024-02-21T01:24:44;101315.69;;;15.63;100.00
22333;BME280;11334;36.986;-121.936;2024-02-21T01:27:11;101312.84;;;15.64;100.00
22333;BME280;11334;36.986;-121.936;2024-02-21T01:29:37;101304.53;;;15.59;100.00
22333;BME280;11334;36.986;-121.936;2024-02-21T01:32:03;101302.84;;;15.58;100.00
22333;BME280;11334;36.986;-121.936;2024-02-21T01:34:30;101299.00;;;15.61;100.00
22333;BME280;11334;36.986;-121.936;2024-02-21T01:36:56;101293.84;;;15.59;100.00
22333;BME280;11334;36.986;-121.936;2024-02-21T01:39:22;101299.00;;;15.61;100.00
22333;BME280;11334;36.986;-121.936;2024-02-21T01:41:48;101293.50;;;15.62;100.00
22333;BME280;11334;36.986;-121.936;2024-02-21T01:44:14;101291.69;;;15.55;100.00
22333;BME280;11334;36.986;-121.936;2024-02-21T01:46:41;101304.03;;;15.56;100.00
22333;BME280;11334;36.986;-121.936;2024-02-21T01:49:08;101300.06;;;15.52;100.00
22333;BME280;11334;36.986;-121.936;2024-02-21T01:51:34;101300.53;;;15.55;100.00
22333;BME280;11334;36.986;-121.936;2024-02-21T01:54:01;101292.88;;;15.52;100.00
22333;BME280;11334;36.986;-121.936;2024-02-21T01:56:27;101288.41;;;15.45;100.00
22333;BME280;11334;36.986;-121.936;2024-02-21T01:58:55;101292.25;;;15.43;100.00
22333;BME280;11334;36.986;-121.936;2024-02-21T02:01:22;101300.94;;;15.45;100.00
22333;BME280;11334;36.986;-121.936;2024-02-21T02:03:48;101298.25;;;15.45;100.00
22333;BME280;11334;36.986;-121.936;2024-02-21T02:06:15;101291.59;;;15.41;100.00
22333;BME280;11334;36.986;-121.936;2024-02-21T02:08:42;101299.28;;;15.36;100.00
22333;BME280;11334;36.986;-121.936;2024-02-21T02:11:09;101296.63;;;15.36;100.00
22333;BME280;11334;36.986;-121.936;2024-02-21T02:13:35;101299.44;;;15.34;100.00
22333;BME280;11334;36.986;-121.936;2024-02-21T02:16:01;101301.16;;;15.27;100.00
22333;BME280;11334;36.986;-121.936;2024-02-21T02:18:28;101309.19;;;15.27;100.00
22333;BME280;11334;36.986;-121.936;2024-02-21T02:20:54;101305.66;;;15.27;100.00
22333;BME280;11334;36.986;-121.936;2024-02-21T02:23:25;101309.50;;;15.24;100.00
22333;BME280;11334;36.986;-121.936;2024-02-21T02:25:51;101313.34;;;15.30;100.00
22333;BME280;11334;36.986;-121.936;2024-02-21T02:28:18;101309.50;;;15.24;100.00
22333;BME280;11334;36.986;-121.936;2024-02-21T02:30:45;101312.38;;;15.23;100.00
22333;BME280;11334;36.986;-121.936;2024-02-21T02:33:11;101309.03;;;15.21;100.00
22333;BME280;11334;36.986;-121.936;2024-02-21T02:35:38;101319.72;;;15.21;100.00
22333;BME280;11334;36.986;-121.936;2024-02-21T02:38:04;101317.69;;;15.23;100.00
22333;BME280;11334;36.986;-121.936;2024-02-21T02:40:32;101313.19;;;15.23;100.00
22333;BME280;11334;36.986;-121.936;2024-02-21T02:42:59;101318.22;;;15.18;100.00
22333;BME280;11334;36.986;-121.936;2024-02-21T02:45:25;101323.03;;;15.23;100.00
22333;BME280;11334;36.986;-121.936;2024-02-21T02:47:53;101326.88;;;15.20;100.00
22333;BME280;11334;36.986;-121.936;2024-02-21T02:50:26;101318.06;;;15.20;100.00
22333;BME280;11334;36.986;-121.936;2024-02-21T02:52:54;101317.53;;;15.09;100.00
22333;BME280;11334;36.986;-121.936;2024-02-21T02:55:20;101326.09;;;15.12;100.00
22333;BME280;11334;36.986;-121.936;2024-02-21T02:57:46;101333.91;;;15.14;100.00
22333;BME280;11334;36.986;-121.936;2024-02-21T03:00:14;101325.56;;;15.09;100.00
22333;BME280;11334;36.986;-121.936;2024-02-21T03:02:45;101327.75;;;15.05;100.00
22333;BME280;11334;36.986;-121.936;2024-02-21T03:05:21;101333.59;;;15.01;100.00
22333;BME280;11334;36.986;-121.936;2024-02-21T03:07:48;101331.41;;;15.04;100.00
22333;BME280;11334;36.986;-121.936;2024-02-21T03:10:15;101338.06;;;15.08;100.00
22333;BME280;11334;36.986;-121.936;2024-02-21T03:12:44;101334.06;;;15.04;100.00
22333;BME280;11334;36.986;-121.936;2024-02-21T03:15:11;101331.25;;;15.06;100.00
22333;BME280;11334;36.986;-121.936;2024-02-21T03:17:37;101329.06;;;15.01;100.00
22333;BME280;11334;36.986;-121.936;2024-02-21T03:20:05;101327.78;;;14.97;100.00
22333;BME280;11334;36.986;-121.936;2024-02-21T03:22:35;101336.59;;;14.98;100.00
22333;BME280;11334;36.986;-121.936;2024-02-21T03:25:01;101336.09;;;14.94;100.00
22333;BME280;11334;36.986;-121.936;2024-02-21T03:27:28;101327.59;;;14.91;100.00
22333;BME280;11334;36.986;-121.936;2024-02-21T03:29:54;101327.09;;;14.95;100.00
22333;BME280;11334;36.986;-121.936;2024-02-21T03:32:20;101337.44;;;14.98;100.00
22333;BME280;11334;36.986;-121.936;2024-02-21T03:34:46;101331.28;;;14.90;100.00
22333;BME280;11334;36.986;-121.936;2024-02-21T03:37:13;101333.97;;;14.90;100.00
22333;BME280;11334;36.986;-121.936;2024-02-21T03:39:40;101342.94;;;14.89;100.00
22333;BME280;11334;36.986;-121.936;2024-02-21T03:42:06;101328.78;;;14.81;100.00
22333;BME280;11334;36.986;-121.936;2024-02-21T03:44:32;101349.28;;;14.88;100.00
22333;BME280;11334;36.986;-121.936;2024-02-21T03:46:59;101349.09;;;14.89;100.00
22333;BME280;11334;36.986;-121.936;2024-02-21T03:49:26;101349.13;;;14.82;100.00
22333;BME280;11334;36.986;-121.936;2024-02-21T03:51:52;101353.13;;;14.85;100.00
22333;BME280;11334;36.986;-121.936;2024-02-21T03:54:19;101350.81;;;14.83;100.00
22333;BME280;11334;36.986;-121.936;2024-02-21T03:56:45;101350.13;;;14.81;100.00
22333;BME280;11334;36.986;-121.936;2024-02-21T03:59:13;101350.97;;;14.81;100.00
22333;BME280;11334;36.986;-121.936;2024-02-21T04:01:39;101368.16;;;14.79;100.00
22333;BME280;11334;36.986;-121.936;2024-02-21T04:04:06;101366.31;;;14.79;100.00
22333;BME280;11334;36.986;-121.936;2024-02-21T04:06:32;101382.16;;;14.81;100.00
22333;BME280;11334;36.986;-121.936;2024-02-21T04:08:58;101381.81;;;14.84;100.00
22333;BME280;11334;36.986;-121.936;2024-02-21T04:11:25;101382.47;;;14.85;100.00
22333;BME280;11334;36.986;-121.936;2024-02-21T04:13:51;101381.63;;;14.77;100.00
22333;BME280;11334;36.986;-121.936;2024-02-21T04:16:17;101388.47;;;14.80;100.00
22333;BME280;11334;36.986;-121.936;2024-02-21T04:18:44;101386.00;;;14.78;100.00
22333;BME280;11334;36.986;-121.936;2024-02-21T04:21:14;101385.81;;;14.80;100.00
22333;BME280;11334;36.986;-121.936;2024-02-21T04:23:42;101382.50;;;14.78;100.00
22333;BME280;11334;36.986;-121.936;2024-02-21T04:26:08;101386.31;;;14.83;100.00
22333;BME280;11334;36.986;-121.936;2024-02-21T04:28:34;101388.47;;;14.80;100.00
22333;BME280;11334;36.986;-121.936;2024-02-21T04:31:01;101393.31;;;14.76;100.00
22333;BME280;11334;36.986;-121.936;2024-02-21T04:33:27;101400.31;;;14.77;100.00
22333;BME280;11334;36.986;-121.936;2024-02-21T04:35:53;101393.16;;;14.78;100.00
22333;BME280;11334;36.986;-121.936;2024-02-21T04:38:21;101399.47;;;14.77;100.00
22333;BME280;11334;36.986;-121.936;2024-02-21T04:40:47;101404.50;;;14.72;100.00
22333;BME280;11334;36.986;-121.936;2024-02-21T04:43:13;101400.16;;;14.71;100.00
22333;BME280;11334;36.986;-121.936;2024-02-21T04:45:39;101402.00;;;14.70;100.00
22333;BME280;11334;36.986;-121.936;2024-02-21T04:48:06;101403.50;;;14.73;100.00
22333;BME280;11334;36.986;-121.936;2024-02-21T04:50:32;101401.47;;;14.67;100.00
22333;BME280;11334;36.986;-121.936;2024-02-21T04:52:58;101408.16;;;14.71;100.00
22333;BME280;11334;36.986;-121.936;2024-02-21T04:55:25;101406.66;;;14.68;100.00
22333;BME280;11334;36.986;-121.936;2024-02-21T04:57:51;101409.81;;;14.64;100.00
22333;BME280;11334;36.986;-121.936;2024-02-21T05:00:17;101409.50;;;14.59;100.00
22333;BME280;11334;36.986;-121.936;2024-02-21T05:02:44;101420.97;;;14.59;100.00
22333;BME280;11334;36.986;-121.936;2024-02-21T05:05:10;101414.34;;;14.63;100.00
22333;BME280;11334;36.986;-121.936;2024-02-21T05:07:36;101421.16;;;14.58;100.00
22333;BME280;11334;36.986;-121.936;2024-02-21T05:10:02;101419.16;;;14.60;100.00
22333;BME280;11334;36.986;-121.936;2024-02-21T05:12:29;101414.50;;;14.54;100.00
22333;BME280;11334;36.986;-121.936;2024-02-21T05:14:55;101416.47;;;14.52;100.00
22333;BME280;11334;36.986;-121.936;2024-02-21T05:17:22;101426.16;;;14.53;100.00
22333;BME280;11334;36.986;-121.936;2024-02-21T05:19:48;101419.81;;;14.54;100.00
22333;BME280;11334;36.986;-121.936;2024-02-21T05:22:14;101426.66;;;14.56;100.00
22333;BME280;11334;36.986;-121.936;2024-02-21T05:24:40;101421.16;;;14.58;100.00
22333;BME280;11334;36.986;-121.936;2024-02-21T05:27:06;101434.50;;;14.58;100.00
22333;BME280;11334;36.986;-121.936;2024-02-21T05:29:33;101432.16;;;14.55;100.00
22333;BME280;11334;36.986;-121.936;2024-02-21T05:32:00;101429.81;;;14.60;100.00
22333;BME280;11334;36.986;-121.936;2024-02-21T05:34:26;101428.16;;;14.51;100.00
22333;BME280;11334;36.986;-121.936;2024-02-21T05:36:53;101428.31;;;14.50;100.00
22333;BME280;11334;36.986;-121.936;2024-02-21T05:39:19;101429.81;;;14.44;100.00
22333;BME280;11334;36.986;-121.936;2024-02-21T05:41:48;101436.78;;;14.45;100.00
22333;BME280;11334;36.986;-121.936;2024-02-21T05:44:16;101426.13;;;14.45;100.00
22333;BME280;11334;36.986;-121.936;2024-02-21T05:46:42;101422.63;;;14.45;100.00
22333;BME280;11334;36.986;-121.936;2024-02-21T05:49:09;101430.16;;;14.49;100.00
22333;BME280;11334;36.986;-121.936;2024-02-21T05:51:35;101438.47;;;14.46;100.00
22333;BME280;11334;36.986;-121.936;2024-02-21T05:54:01;101434.66;;;14.41;100.00
22333;BME280;11334;36.986;-121.936;2024-02-21T05:56:27;101439.47;;;14.45;100.00
22333;BME280;11334;36.986;-121.936;2024-02-21T05:58:54;101437.47;;;14.39;100.00
22333;BME280;11334;36.986;-121.936;2024-02-21T06:01:20;101431.78;;;14.42;100.00
22333;BME280;11334;36.986;-121.936;2024-02-21T06:03:49;101438.81;;;14.43;100.00
22333;BME280;11334;36.986;-121.936;2024-02-21T06:06:16;101444.16;;;14.43;100.00
22333;BME280;11334;36.986;-121.936;2024-02-21T06:08:42;101446.28;;;14.40;100.00
22333;BME280;11334;36.986;-121.936;2024-02-21T06:11:08;101449.63;;;14.42;100.00
22333;BME280;11334;36.986;-121.936;2024-02-21T06:13:38;101448.28;;;14.38;100.00
22333;BME280;11334;36.986;-121.936;2024-02-21T06:16:07;101452.97;;;14.36;100.00
22333;BME280;11334;36.986;-121.936;2024-02-21T06:18:35;101450.59;;;14.33;100.00
22333;BME280;11334;36.986;-121.936;2024-02-21T06:21:02;101452.63;;;14.31;100.00
22333;BME280;11334;36.986;-121.936;2024-02-21T06:23:29;101456.13;;;14.31;100.00
22333;BME280;11334;36.986;-121.936;2024-02-21T06:25:55;101451.75;;;14.30;100.00
22333;BME280;11334;36.986;-121.936;2024-02-21T06:28:21;101449.78;;;14.32;100.00
22333;BME280;11334;36.986;-121.936;2024-02-21T06:30:47;101448.47;;;14.36;100.00
22333;BME280;11334;36.986;-121.936;2024-02-21T06:33:14;101443.47;;;14.33;100.00
22333;BME280;11334;36.986;-121.936;2024-02-21T06:35:40;101442.09;;;14.29;100.00
22333;BME280;11334;36.986;-121.936;2024-02-21T06:38:08;101440.09;;;14.23;100.00
22333;BME280;11334;36.986;-121.936;2024-02-21T06:40:34;101436.09;;;14.20;100.00
22333;BME280;11334;36.986;-121.936;2024-02-21T06:43:05;101436.09;;;14.20;100.00
22333;BME280;11334;36.986;-121.936;2024-02-21T06:45:31;101434.59;;;14.17;100.00
22333;BME280;11334;36.986;-121.936;2024-02-21T06:47:57;101429.72;;;14.13;100.00
22333;BME280;11334;36.986;-121.936;2024-02-21T06:50:24;101433.06;;;14.15;100.00
22333;BME280;11334;36.986;-121.936;2024-02-21T06:52:50;101422.09;;;14.18;100.00
22333;BME280;11334;36.986;-121.936;2024-02-21T06:55:16;101425.75;;;14.17;100.00
22333;BME280;11334;36.986;-121.936;2024-02-21T06:57:42;101424.06;;;14.16;100.00
22333;BME280;11334;36.986;-121.936;2024-02-21T07:00:09;101431.56;;;14.12;100.00
22333;BME280;11334;36.986;-121.936;2024-02-21T07:02:35;101425.06;;;14.07;100.00
22333;BME280;11334;36.986;-121.936;2024-02-21T07:05:01;101429.72;;;14.05;100.00
22333;BME280;11334;36.986;-121.936;2024-02-21T07:07:28;101428.22;;;14.02;100.00
22333;BME280;11334;36.986;-121.936;2024-02-21T07:09:55;101421.72;;;14.05;100.00
22333;BME280;11334;36.986;-121.936;2024-02-21T07:12:21;101423.72;;;14.03;100.00
22333;BME280;11334;36.986;-121.936;2024-02-21T07:14:47;101422.56;;;14.05;100.00
22333;BME280;11334;36.986;-121.936;2024-02-21T07:17:14;101421.72;;;14.05;100.00
22333;BME280;11334;36.986;-121.936;2024-02-21T07:19:40;101418.56;;;14.09;100.00
22333;BME280;11334;36.986;-121.936;2024-02-21T07:22:06;101414.75;;;14.12;100.00
22333;BME280;11334;36.986;-121.936;2024-02-21T07:24:32;101422.75;;;14.12;100.00
22333;BME280;11334;36.986;-121.936;2024-02-21T07:26:58;101417.91;;;14.07;100.00
22333;BME280;11334;36.986;-121.936;2024-02-21T07:29:30;101424.72;;;14.10;100.00
22333;BME280;11334;36.986;-121.936;2024-02-21T07:31:56;101423.91;;;14.09;100.00
22333;BME280;11334;36.986;-121.936;2024-02-21T07:34:23;101420.41;;;14.09;100.00
22333;BME280;11334;36.986;-121.936;2024-02-21T07:36:49;101426.09;;;14.14;100.00
22333;BME280;11334;36.986;-121.936;2024-02-21T07:39:15;101428.75;;;14.14;100.00
22333;BME280;11334;36.986;-121.936;2024-02-21T07:41:42;101433.06;;;14.15;100.00
22333;BME280;11334;36.986;-121.936;2024-02-21T07:44:10;101432.25;;;14.14;100.00
22333;BME280;11334;36.986;-121.936;2024-02-21T07:46:37;101430.41;;;14.15;100.00
22333;BME280;11334;36.986;-121.936;2024-02-21T07:49:03;101435.59;;;14.16;100.00
22333;BME280;11334;36.986;-121.936;2024-02-21T07:51:29;101434.91;;;14.14;100.00
22333;BME280;11334;36.986;-121.936;2024-02-21T07:53:55;101439.09;;;14.17;100.00
22333;BME280;11334;36.986;-121.936;2024-02-21T07:56:21;101436.41;;;14.17;100.00
22333;BME280;11334;36.986;-121.936;2024-02-21T07:58:48;101436.41;;;14.17;100.00
22333;BME280;11334;36.986;-121.936;2024-02-21T08:01:20;101425.56;;;14.10;100.00
22333;BME280;11334;36.986;-121.936;2024-02-21T08:03:47;101437.09;;;14.19;100.00
22333;BME280;11334;36.986;-121.936;2024-02-21T08:06:13;101431.41;;;14.14;100.00
22333;BME280;11334;36.986;-121.936;2024-02-21T08:08:40;101432.59;;;14.11;100.00
22333;BME280;11334;36.986;-121.936;2024-02-21T08:11:06;101432.59;;;14.11;100.00
22333;BME280;11334;36.986;-121.936;2024-02-21T08:13:33;101435.53;;;14.08;100.00
22333;BME280;11334;36.986;-121.936;2024-02-21T08:15:59;101427.25;;;14.11;100.00
22333;BME280;11334;36.986;-121.936;2024-02-21T08:18:25;101430.75;;;14.12;100.00
22333;BME280;11334;36.986;-121.936;2024-02-21T08:20:51;101418.94;;;14.14;100.00
22333;BME280;11334;36.986;-121.936;2024-02-21T08:23:19;101414.06;;;14.10;100.00
22333;BME280;11334;36.986;-121.936;2024-02-21T08:25:45;101428.09;;;14.12;100.00
22333;BME280;11334;36.986;-121.936;2024-02-21T08:28:11;101430.06;;;14.10;100.00
22333;BME280;11334;36.986;-121.936;2024-02-21T08:30:38;101434.56;;;14.09;100.00
22333;BME280;11334;36.986;-121.936;2024-02-21T08:33:05;101422.75;;;14.12;100.00
22333;BME280;11334;36.986;-121.936;2024-02-21T08:35:31;101424.06;;;14.16;100.00
22333;BME280;11334;36.986;-121.936;2024-02-21T08:37:57;101428.44;;;14.17;100.00
22333;BME280;11334;36.986;-121.936;2024-02-21T08:40:23;101423.09;;;14.24;100.00
22333;BME280;11334;36.986;-121.936;2024-02-21T08:42:49;101432.75;;;14.18;100.00
22333;BME280;11334;36.986;-121.936;2024-02-21T08:45:16;101438.75;;;14.12;100.00
22333;BME280;11334;36.986;-121.936;2024-02-21T08:47:42;101440.88;;;14.08;100.00
22333;BME280;11334;36.986;-121.936;2024-02-21T08:50:09;101443.03;;;14.05;100.00
22333;BME280;11334;36.986;-121.936;2024-02-21T08:52:36;101440.84;;;14.00;100.00
22333;BME280;11334;36.986;-121.936;2024-02-21T08:55:03;101440.22;;;14.06;100.00
22333;BME280;11334;36.986;-121.936;2024-02-21T08:57:29;101440.88;;;14.08;100.00
22333;BME280;11334;36.986;-121.936;2024-02-21T08:59:55;101445.56;;;14.06;100.00
22333;BME280;11334;36.986;-121.936;2024-02-21T09:02:21;101438.19;;;14.00;100.00
22333;BME280;11334;36.986;-121.936;2024-02-21T09:04:48;101448.69;;;14.02;100.00
22333;BME280;11334;36.986;-121.936;2024-02-21T09:07:14;101452.41;;;14.09;100.00
22333;BME280;11334;36.986;-121.936;2024-02-21T09:09:40;101439.38;;;14.06;100.00
22333;BME280;11334;36.986;-121.936;2024-02-21T09:12:07;101445.22;;;14.09;100.00
22333;BME280;11334;36.986;-121.936;2024-02-21T09:14:34;101445.03;;;14.11;100.00
22333;BME280;11334;36.986;-121.936;2024-02-21T09:17:00;101451.88;;;14.13;100.00
22333;BME280;11334;36.986;-121.936;2024-02-21T09:19:26;101450.91;;;14.14;100.00
22333;BME280;11334;36.986;-121.936;2024-02-21T09:21:53;101454.19;;;14.08;100.00
22333;BME280;11334;36.986;-121.936;2024-02-21T09:24:19;101448.88;;;14.08;100.00
22333;BME280;11334;36.986;-121.936;2024-02-21T09:26:45;101456.72;;;14.10;100.00
22333;BME280;11334;36.986;-121.936;2024-02-21T09:29:11;101451.72;;;14.07;100.00
22333;BME280;11334;36.986;-121.936;2024-02-21T09:31:37;101447.72;;;14.11;100.00
22333;BME280;11334;36.986;-121.936;2024-02-21T09:34:04;101449.53;;;14.10;100.00
22333;BME280;11334;36.986;-121.936;2024-02-21T09:36:31;101453.38;;;14.08;100.00
22333;BME280;11334;36.986;-121.936;2024-02-21T09:38:57;101445.38;;;14.08;100.00
22333;BME280;11334;36.986;-121.936;2024-02-21T09:41:26;101448.53;;;14.03;100.00
22333;BME280;11334;36.986;-121.936;2024-02-21T09:43:56;101447.69;;;14.03;100.00
22333;BME280;11334;36.986;-121.936;2024-02-21T09:49:10;101443.19;;;14.03;100.00
22333;BME280;11334;36.986;-121.936;2024-02-21T09:51:40;101450.72;;;14.08;100.00
22333;BME280;11334;36.986;-121.936;2024-02-21T09:54:08;101466.00;;;14.06;100.00
22333;BME280;11334;36.986;-121.936;2024-02-21T09:56:34;101459.72;;;14.07;100.00
22333;BME280;11334;36.986;-121.936;2024-02-21T09:59:01;101452.88;;;14.04;100.00
22333;BME280;11334;36.986;-121.936;2024-02-21T10:01:31;101452.69;;;14.06;100.00
22333;BME280;11334;36.986;-121.936;2024-02-21T10:03:58;101455.19;;;13.99;100.00
22333;BME280;11334;36.986;-121.936;2024-02-21T10:06:24;101461.34;;;14.00;100.00
22333;BME280;11334;36.986;-121.936;2024-02-21T10:08:54;101457.16;;;13.97;100.00
22333;BME280;11334;36.986;-121.936;2024-02-21T10:11:24;101456.50;;;14.03;100.00
22333;BME280;11334;36.986;-121.936;2024-02-21T10:14:05;101457.03;;;13.99;100.00
22333;BME280;11334;36.986;-121.936;2024-02-21T10:16:32;101462.34;;;13.99;100.00
22333;BME280;11334;36.986;-121.936;2024-02-21T10:19:03;101462.59;;;13.96;100.00
22333;BME280;11334;36.986;-121.936;2024-02-21T10:21:29;101455.88;;;14.01;100.00
22333;BME280;11334;36.986;-121.936;2024-02-21T10:23:55;101447.53;;;14.04;100.00
22333;BME280;11334;36.986;-121.936;2024-02-21T10:26:21;101462.34;;;13.99;100.00
22333;BME280;11334;36.986;-121.936;2024-02-21T10:28:48;101458.81;;;13.98;100.00
22333;BME280;11334;36.986;-121.936;2024-02-21T10:31:26;101461.78;;;13.95;100.00
22333;BME280;11334;36.986;-121.936;2024-02-21T10:33:56;101465.25;;;13.88;100.00
22333;BME280;11334;36.986;-121.936;2024-02-21T10:36:23;101465.56;;;13.85;100.00
22333;BME280;11334;36.986;-121.936;2024-02-21T10:38:52;101468.09;;;13.87;100.00
22333;BME280;11334;36.986;-121.936;2024-02-21T10:41:20;101473.41;;;13.87;100.00
22333;BME280;11334;36.986;-121.936;2024-02-21T10:43:50;101479.53;;;13.79;100.00
22333;BME280;11334;36.986;-121.936;2024-02-21T10:46:21;101476.09;;;13.87;100.00
22333;BME280;11334;36.986;-121.936;2024-02-21T10:49:10;101483.41;;;13.85;100.00
22333;BME280;11334;36.986;-121.936;2024-02-21T10:51:38;101473.22;;;13.80;100.00
22333;BME280;11334;36.986;-121.936;2024-02-21T10:56:46;101480.84;;;13.75;100.00
22333;BME280;11334;36.986;-121.936;2024-02-21T10:59:16;101483.00;;;13.72;100.00
22333;BME280;11334;36.986;-121.936;2024-02-21T11:01:43;101481.16;;;13.72;100.00
22333;BME280;11334;36.986;-121.936;2024-02-21T11:04:10;101476.78;;;13.63;100.00
22333;BME280;11334;36.986;-121.936;2024-02-21T11:06:39;101486.97;;;13.68;100.00
22333;BME280;11334;36.986;-121.936;2024-02-21T11:09:10;101489.81;;;13.66;100.00
22333;BME280;11334;36.986;-121.936;2024-02-21T11:11:41;101481.63;;;13.68;100.00
22333;BME280;11334;36.986;-121.936;2024-02-21T11:14:08;101478.78;;;13.61;100.00
22333;BME280;11334;36.986;-121.936;2024-02-21T11:16:40;101489.25;;;13.63;100.00
22333;BME280;11334;36.986;-121.936;2024-02-21T11:19:23;101484.75;;;13.63;100.00
22333;BME280;11334;36.986;-121.936;2024-02-21T11:21:51;101482.38;;;13.53;100.00
22333;BME280;11334;36.986;-121.936;2024-02-21T11:24:36;101472.78;;;13.34;100.00
22333;BME280;11334;36.986;-121.936;2024-02-21T11:27:20;101487.97;;;13.42;100.00
22333;BME280;11334;36.986;-121.936;2024-02-21T11:29:55;101487.63;;;13.37;100.00
22333;BME280;11334;36.986;-121.936;2024-02-21T11:32:22;101492.25;;;13.35;100.00
22333;BME280;11334;36.986;-121.936;2024-02-21T11:34:58;101494.09;;;13.34;100.00
22333;BME280;11334;36.986;-121.936;2024-02-21T11:37:32;101496.91;;;13.33;100.00
22333;BME280;11334;36.986;-121.936;2024-02-21T11:40:00;101490.84;;;13.23;100.00
22333;BME280;11334;36.986;-121.936;2024-02-21T11:42:27;101504.81;;;13.25;100.00
22333;BME280;11334;36.986;-121.936;2024-02-21T11:44:54;101504.00;;;13.25;100.00
22333;BME280;11334;36.986;-121.936;2024-02-21T11:47:24;101512.25;;;13.22;100.00
22333;BME280;11334;36.986;-121.936;2024-02-21T11:49:51;101511.75;;;13.18;100.00
22333;BME280;11334;36.986;-121.936;2024-02-21T11:52:24;101510.88;;;13.10;100.00
22333;BME280;11334;36.986;-121.936;2024-02-21T11:54:54;101492.78;;;12.96;100.00
22333;BME280;11334;36.986;-121.936;2024-02-21T11:57:23;101506.44;;;13.01;100.00
22333;BME280;11334;36.986;-121.936;2024-02-21T11:59:51;101507.28;;;13.01;100.00
22333;BME280;11334;36.986;-121.936;2024-02-21T12:02:20;101501.44;;;12.98;100.00
22333;BME280;11334;36.986;-121.936;2024-02-21T12:04:47;101505.94;;;12.97;100.00
22333;BME280;11334;36.986;-121.936;2024-02-21T12:07:14;101505.94;;;12.97;100.00
22333;BME280;11334;36.986;-121.936;2024-02-21T12:09:44;101506.59;;;12.99;100.00
22333;BME280;11334;36.986;-121.936;2024-02-21T12:12:10;101501.38;;;12.90;100.00
22333;BME280;11334;36.986;-121.936;2024-02-21T12:14:36;101497.78;;;12.99;100.00
22333;BME280;11334;36.986;-121.936;2024-02-21T12:17:04;101502.91;;;12.93;100.00